Terminal Aerodrome Forecast
Issued by NWS

Home | Current Version | Previous Version | Text Only | Print | Product List | Glossary On
Versions: 1 2 3 4 5 6 7 8 9 10 11 12 13 14 15
000
FTUS46 KPDT 201100
TAFBDN
TAF
KBDN 201120Z 2012/2112 20005KT P6SM SCT200
     FM201600 21006KT P6SM SCT150
     FM202200 33009KT P6SM BKN150
     FM210500 VRB05KT P6SM OVC120=

USA.gov is the U.S. government's official web portal to all federal, state and local government web resources and services.